createdAt,value
2017-08-30T00:02:07.036Z,16.43
2017-08-30T00:04:34.345Z,16.77
2017-08-30T00:07:01.660Z,15.40
2017-08-30T00:09:28.970Z,16.77
2017-08-30T00:11:56.285Z,16.00
2017-08-30T00:14:23.622Z,16.37
2017-08-30T00:16:50.972Z,16.87
2017-08-30T00:19:18.302Z,16.17
2017-08-30T00:21:45.612Z,15.57
2017-08-30T00:24:13.074Z,16.60
2017-08-30T00:26:40.393Z,15.50
2017-08-30T00:29:07.926Z,16.53
2017-08-30T00:31:35.253Z,16.77
2017-08-30T00:34:02.574Z,15.73
2017-08-30T00:36:29.909Z,16.40
2017-08-30T00:38:57.244Z,16.10
2017-08-30T00:41:24.580Z,16.13
2017-08-30T00:43:51.921Z,16.07
2017-08-30T00:46:19.266Z,16.77
2017-08-30T00:48:46.631Z,16.37
2017-08-30T00:51:13.928Z,16.17
2017-08-30T00:53:41.259Z,16.90
2017-08-30T00:56:08.571Z,15.63
2017-08-30T00:58:35.884Z,16.80
2017-08-30T01:01:03.198Z,17.20
2017-08-30T01:03:30.521Z,16.63
2017-08-30T01:05:57.841Z,16.07
2017-08-30T01:08:25.189Z,15.43
2017-08-30T01:10:52.521Z,16.80
2017-08-30T01:13:19.877Z,15.37
2017-08-30T01:15:47.206Z,17.07
2017-08-30T01:18:14.574Z,17.83
2017-08-30T01:20:41.885Z,17.20
2017-08-30T01:23:09.234Z,17.80
2017-08-30T01:25:36.581Z,16.00
2017-08-30T01:28:03.966Z,16.43
2017-08-30T01:30:31.265Z,17.40
2017-08-30T01:32:58.626Z,17.27
2017-08-30T01:35:25.937Z,17.87
2017-08-30T01:37:53.273Z,16.83
2017-08-30T01:40:20.674Z,17.33
2017-08-30T01:42:47.962Z,17.03
2017-08-30T01:45:15.301Z,18.77
2017-08-30T01:47:42.633Z,17.60
2017-08-30T01:50:09.999Z,17.43
2017-08-30T01:52:37.321Z,17.20
2017-08-30T01:55:04.639Z,16.60
2017-08-30T01:57:31.936Z,16.90
2017-08-30T01:59:59.264Z,17.00
2017-08-30T02:02:26.572Z,16.97
2017-08-30T02:04:53.950Z,17.90
2017-08-30T02:07:21.262Z,17.90
2017-08-30T02:09:48.612Z,17.40
2017-08-30T02:12:15.948Z,18.50
2017-08-30T02:14:43.315Z,17.70
2017-08-30T02:17:10.630Z,18.47
2017-08-30T02:19:37.984Z,19.43
2017-08-30T02:22:05.310Z,18.17
2017-08-30T02:24:32.641Z,18.47
2017-08-30T02:26:59.966Z,18.03
2017-08-30T02:29:27.289Z,18.23
2017-08-30T02:31:54.588Z,17.60
2017-08-30T02:34:21.928Z,17.53
2017-08-30T02:36:49.562Z,18.07
2017-08-30T02:39:16.904Z,18.67
2017-08-30T02:41:44.268Z,18.87
2017-08-30T02:44:11.580Z,18.43
2017-08-30T02:46:40.153Z,18.47
2017-08-30T02:49:07.475Z,16.97
2017-08-30T02:51:34.789Z,17.13
2017-08-30T02:54:02.092Z,17.93
2017-08-30T02:56:29.742Z,17.70
2017-08-30T02:58:57.067Z,18.10
2017-08-30T03:01:24.442Z,17.80
2017-08-30T03:03:51.755Z,18.10
2017-08-30T03:06:19.096Z,18.23
2017-08-30T03:08:46.406Z,17.87
2017-08-30T03:11:13.987Z,17.83
2017-08-30T03:13:41.335Z,17.60
2017-08-30T03:16:09.714Z,16.80
2017-08-30T03:18:37.050Z,18.70
2017-08-30T03:21:04.419Z,18.13
2017-08-30T03:23:31.699Z,18.00
2017-08-30T03:25:59.029Z,18.37
2017-08-30T03:28:26.338Z,18.33
2017-08-30T03:30:53.657Z,18.50
2017-08-30T03:33:20.982Z,18.17
2017-08-30T03:35:48.344Z,18.50
2017-08-30T03:38:15.654Z,18.10
2017-08-30T03:40:42.984Z,18.80
2017-08-30T03:43:10.301Z,17.07
2017-08-30T03:45:37.618Z,17.80
2017-08-30T03:48:04.938Z,18.60
2017-08-30T03:50:32.270Z,18.97
2017-08-30T03:52:59.638Z,19.00
2017-08-30T03:55:27.233Z,19.20
2017-08-30T03:57:54.552Z,18.77
2017-08-30T04:00:21.871Z,17.90
2017-08-30T04:02:49.180Z,19.47
2017-08-30T04:05:16.492Z,18.50
2017-08-30T04:07:44.090Z,18.03
2017-08-30T04:10:11.414Z,16.87
2017-08-30T04:12:38.800Z,17.37
2017-08-30T04:15:06.122Z,17.97
2017-08-30T04:17:33.756Z,17.20
2017-08-30T04:20:01.077Z,18.27
2017-08-30T04:22:28.410Z,18.33
2017-08-30T04:24:55.779Z,18.40
2017-08-30T04:27:23.085Z,16.63
2017-08-30T04:29:50.419Z,17.83
2017-08-30T04:32:17.712Z,17.60
2017-08-30T04:34:45.028Z,17.83
2017-08-30T04:37:12.344Z,16.60
2017-08-30T04:39:39.664Z,17.33
2017-08-30T04:42:06.973Z,16.70
2017-08-30T04:44:34.296Z,16.93
2017-08-30T04:47:01.626Z,17.97
2017-08-30T04:49:28.986Z,16.70
2017-08-30T04:51:56.591Z,16.47
2017-08-30T04:54:23.904Z,16.93
2017-08-30T04:56:51.209Z,17.60
2017-08-30T04:59:18.528Z,15.67
2017-08-30T05:01:45.865Z,17.20
2017-08-30T05:04:13.200Z,15.57
2017-08-30T05:06:40.519Z,17.17
2017-08-30T05:09:07.831Z,16.07
2017-08-30T05:11:35.182Z,16.20
2017-08-30T05:14:02.498Z,16.20
2017-08-30T05:16:29.849Z,16.43
2017-08-30T05:18:57.157Z,15.83
2017-08-30T05:21:24.543Z,16.37
2017-08-30T05:23:51.857Z,16.33
2017-08-30T05:26:19.492Z,16.80
2017-08-30T05:28:46.834Z,15.27
2017-08-30T05:31:14.189Z,16.53
2017-08-30T05:33:41.504Z,16.13
2017-08-30T05:36:08.840Z,16.20
2017-08-30T05:38:36.175Z,16.87
2017-08-30T05:41:03.488Z,16.90
2017-08-30T05:43:30.792Z,16.20
2017-08-30T05:45:58.165Z,15.23
2017-08-30T05:48:25.474Z,16.17
2017-08-30T05:50:52.821Z,16.20
2017-08-30T05:53:20.153Z,14.70
2017-08-30T05:55:47.500Z,15.70
2017-08-30T05:58:14.818Z,14.53
2017-08-30T06:00:42.181Z,14.87
2017-08-30T06:03:09.922Z,15.20
2017-08-30T06:05:37.298Z,16.30
2017-08-30T06:08:04.619Z,15.33
2017-08-30T06:10:31.951Z,15.00
2017-08-30T06:12:59.307Z,14.90
2017-08-30T06:15:26.745Z,15.40
2017-08-30T06:17:54.076Z,15.10
2017-08-30T06:20:22.325Z,14.87
2017-08-30T06:22:49.714Z,14.80
2017-08-30T06:25:17.024Z,14.53
2017-08-30T06:27:44.389Z,14.43
2017-08-30T06:30:11.701Z,14.37
2017-08-30T06:32:39.052Z,14.70
2017-08-30T06:35:06.785Z,13.77
2017-08-30T06:37:34.153Z,15.17
2017-08-30T06:40:01.485Z,14.83
2017-08-30T06:42:28.838Z,13.93
2017-08-30T06:44:56.136Z,14.17
2017-08-30T06:47:23.464Z,35.20
2017-08-30T06:49:50.814Z,23.93
2017-08-30T06:52:18.146Z,15.23
2017-08-30T06:54:45.466Z,14.07
2017-08-30T06:57:12.788Z,15.10
2017-08-30T06:59:40.085Z,14.53
2017-08-30T07:02:07.424Z,19.70
2017-08-30T07:04:34.733Z,14.30
2017-08-30T07:07:02.042Z,15.27
2017-08-30T07:09:29.373Z,14.97
2017-08-30T07:11:56.693Z,13.80
2017-08-30T07:14:24.048Z,14.43
2017-08-30T07:16:51.373Z,13.57
2017-08-30T07:19:18.696Z,14.17
2017-08-30T07:21:46.006Z,13.27
2017-08-30T07:24:13.327Z,13.63
2017-08-30T07:26:40.637Z,14.30
2017-08-30T07:29:07.958Z,14.37
2017-08-30T07:31:35.266Z,13.33
2017-08-30T07:34:02.588Z,12.43
2017-08-30T07:36:29.910Z,13.20
2017-08-30T07:38:57.572Z,13.40
2017-08-30T07:41:24.888Z,13.10
2017-08-30T07:43:52.253Z,13.33
2017-08-30T07:46:19.573Z,13.37
2017-08-30T07:48:46.901Z,14.30
2017-08-30T07:51:14.207Z,13.50
2017-08-30T07:53:41.550Z,12.83
2017-08-30T07:56:08.860Z,13.30
2017-08-30T07:58:36.207Z,12.70
2017-08-30T08:01:03.562Z,13.60
2017-08-30T08:03:30.895Z,13.83
2017-08-30T08:05:58.208Z,13.50
2017-08-30T08:08:25.574Z,13.20
2017-08-30T08:10:52.900Z,12.80
2017-08-30T08:13:20.564Z,12.73
2017-08-30T08:15:47.886Z,13.77
2017-08-30T08:18:15.186Z,13.00
2017-08-30T08:20:42.516Z,14.57
2017-08-30T08:23:09.825Z,14.83
2017-08-30T08:25:37.163Z,13.93
2017-08-30T08:28:04.476Z,12.77
2017-08-30T08:30:31.836Z,12.27
2017-08-30T08:32:59.170Z,13.83
2017-08-30T08:35:26.525Z,12.43
2017-08-30T08:37:53.860Z,12.77
2017-08-30T08:40:21.206Z,13.27
2017-08-30T08:42:48.572Z,13.57
2017-08-30T08:45:15.894Z,12.83
2017-08-30T08:47:43.216Z,12.53
2017-08-30T08:50:10.575Z,12.40
2017-08-30T08:52:37.899Z,12.50
2017-08-30T08:55:05.260Z,12.00
2017-08-30T08:57:32.611Z,13.33
2017-08-30T08:59:59.979Z,12.27
2017-08-30T09:02:27.286Z,12.63
2017-08-30T09:04:54.626Z,13.50
2017-08-30T09:07:21.974Z,12.60
2017-08-30T09:09:49.291Z,13.23
2017-08-30T09:12:16.657Z,13.67
2017-08-30T09:14:43.970Z,14.00
2017-08-30T09:17:11.331Z,13.97
2017-08-30T09:19:38.650Z,14.57
2017-08-30T09:22:06.005Z,14.40
2017-08-30T09:24:33.342Z,14.73
2017-08-30T09:27:00.694Z,14.67
2017-08-30T09:29:28.030Z,15.13
2017-08-30T09:31:55.345Z,16.10
2017-08-30T09:34:22.654Z,14.70
2017-08-30T09:36:49.986Z,15.47
2017-08-30T09:39:17.384Z,16.33
2017-08-30T09:41:44.751Z,14.83
2017-08-30T09:44:12.059Z,15.50
2017-08-30T09:46:39.382Z,14.57
2017-08-30T09:49:06.676Z,15.10
2017-08-30T09:51:33.991Z,14.30
2017-08-30T09:54:01.313Z,14.30
2017-08-30T09:56:28.646Z,14.13
2017-08-30T09:58:56.079Z,13.57
2017-08-30T10:01:23.416Z,14.00
2017-08-30T10:03:50.748Z,13.73
2017-08-30T10:06:18.113Z,13.37
2017-08-30T10:08:45.430Z,11.30
2017-08-30T10:11:12.780Z,10.93
2017-08-30T10:13:40.125Z,10.40
2017-08-30T10:16:07.458Z,9.90
2017-08-30T10:18:34.834Z,10.00
2017-08-30T10:21:02.129Z,10.00
2017-08-30T10:23:29.489Z,9.80
2017-08-30T10:25:56.802Z,9.57
2017-08-30T10:28:24.126Z,9.90
2017-08-30T10:30:51.420Z,10.20
2017-08-30T10:33:18.754Z,9.63
2017-08-30T10:35:46.365Z,9.47
2017-08-30T10:38:13.672Z,9.53
2017-08-30T10:40:40.973Z,9.27
2017-08-30T10:43:08.321Z,9.27
2017-08-30T10:45:35.660Z,9.47
2017-08-30T10:48:03.024Z,9.70
2017-08-30T10:50:30.354Z,9.60
2017-08-30T10:52:57.690Z,9.00
2017-08-30T10:55:25.019Z,10.70
2017-08-30T10:57:52.339Z,9.80
2017-08-30T11:00:19.674Z,9.13
2017-08-30T11:02:46.965Z,9.83
2017-08-30T11:05:14.281Z,9.77
2017-08-30T11:07:41.599Z,9.50
2017-08-30T11:10:08.927Z,9.73
2017-08-30T11:12:37.226Z,9.07
2017-08-30T11:15:04.577Z,10.60
2017-08-30T11:17:31.898Z,9.87
2017-08-30T11:19:59.251Z,10.10
2017-08-30T11:22:26.582Z,10.70
2017-08-30T11:24:53.946Z,10.30
2017-08-30T11:27:21.260Z,9.90
2017-08-30T11:29:48.629Z,9.63
2017-08-30T11:32:15.923Z,11.10
2017-08-30T11:34:43.241Z,10.63
2017-08-30T11:37:10.544Z,10.00
2017-08-30T11:39:37.894Z,9.33
2017-08-30T11:42:05.197Z,9.27
2017-08-30T11:44:32.520Z,8.80
2017-08-30T11:46:59.817Z,9.63
2017-08-30T11:49:27.152Z,9.97
2017-08-30T11:51:54.458Z,9.63
2017-08-30T11:54:21.777Z,9.70
2017-08-30T11:56:49.088Z,9.10
2017-08-30T11:59:16.734Z,9.40
2017-08-30T12:01:44.054Z,9.63
2017-08-30T12:04:11.373Z,8.80
2017-08-30T12:06:38.699Z,8.80
2017-08-30T12:09:05.985Z,8.67
2017-08-30T12:11:33.326Z,8.40
2017-08-30T12:14:00.660Z,9.23
2017-08-30T12:16:28.001Z,9.50
2017-08-30T12:18:55.312Z,8.90
2017-08-30T12:21:22.639Z,8.80
2017-08-30T12:23:49.928Z,9.20
2017-08-30T12:26:17.251Z,8.83
2017-08-30T12:28:44.585Z,8.27
2017-08-30T12:31:11.916Z,9.00
2017-08-30T12:33:39.196Z,8.90
2017-08-30T12:36:06.520Z,9.53
2017-08-30T12:38:39.629Z,9.03
2017-08-30T12:41:06.944Z,8.20
2017-08-30T12:43:34.272Z,9.00
2017-08-30T12:46:01.639Z,8.33
2017-08-30T12:48:29.065Z,8.83
2017-08-30T12:50:56.404Z,8.80
2017-08-30T12:53:23.746Z,8.30
2017-08-30T12:55:51.070Z,8.37
2017-08-30T12:58:18.391Z,8.20
2017-08-30T13:00:45.703Z,7.80
2017-08-30T13:03:13.014Z,8.10
2017-08-30T13:05:40.350Z,7.70
2017-08-30T13:08:07.700Z,7.60
2017-08-30T13:10:35.013Z,8.10
2017-08-30T13:13:02.333Z,7.37
2017-08-30T13:15:29.647Z,8.23
2017-08-30T13:17:56.949Z,7.77
2017-08-30T13:20:24.290Z,7.60
2017-08-30T13:22:51.589Z,8.20
2017-08-30T13:25:18.884Z,7.47
2017-08-30T13:27:46.209Z,7.80
2017-08-30T13:30:13.965Z,7.80
2017-08-30T13:32:41.303Z,7.37
2017-08-30T13:35:08.657Z,7.80
2017-08-30T13:37:35.981Z,7.20
2017-08-30T13:40:03.299Z,7.80
2017-08-30T13:42:30.629Z,7.63
2017-08-30T13:44:57.953Z,7.30
2017-08-30T13:47:25.249Z,7.73
2017-08-30T13:49:52.593Z,6.83
2017-08-30T13:52:19.918Z,7.40
2017-08-30T13:54:47.229Z,7.07
2017-08-30T13:57:14.516Z,6.77
2017-08-30T13:59:41.844Z,7.37
2017-08-30T14:02:09.181Z,6.77
2017-08-30T14:04:36.554Z,6.80
2017-08-30T14:07:03.900Z,7.80
2017-08-30T14:09:31.238Z,7.50
2017-08-30T14:11:58.550Z,6.53
2017-08-30T14:14:25.872Z,6.60
2017-08-30T14:16:53.182Z,6.70
2017-08-30T14:19:20.503Z,6.50
2017-08-30T14:21:47.819Z,6.40
2017-08-30T14:24:15.127Z,6.60
2017-08-30T14:26:42.412Z,7.10
2017-08-30T14:29:09.771Z,7.90
2017-08-30T14:31:37.107Z,6.93
2017-08-30T14:34:04.408Z,6.57
2017-08-30T14:36:31.712Z,6.90
2017-08-30T14:38:59.001Z,6.70
2017-08-30T14:41:26.359Z,6.33
2017-08-30T14:43:53.870Z,6.50
2017-08-30T14:46:21.535Z,6.90
2017-08-30T14:48:48.946Z,6.27
2017-08-30T14:54:11.806Z,6.10
2017-08-30T14:56:39.127Z,5.82
2017-08-30T14:59:06.475Z,5.62
2017-08-30T15:01:33.823Z,5.60
2017-08-30T15:04:01.137Z,5.70
2017-08-30T15:06:28.459Z,5.95
2017-08-30T15:08:55.740Z,5.43
2017-08-30T15:11:23.076Z,5.30
2017-08-30T15:13:50.422Z,5.15
2017-08-30T15:16:17.755Z,5.70
2017-08-30T15:18:45.103Z,5.40
2017-08-30T15:21:12.441Z,5.43
2017-08-30T15:23:39.787Z,5.25
2017-08-30T15:26:07.358Z,4.72
2017-08-30T15:28:34.664Z,4.85
2017-08-30T15:31:01.965Z,5.40
2017-08-30T15:33:29.273Z,4.97
2017-08-30T15:35:56.587Z,5.03
2017-08-30T15:38:23.902Z,4.87
2017-08-30T15:40:51.210Z,4.90
2017-08-30T15:43:18.546Z,4.37
2017-08-30T15:45:45.840Z,4.78
2017-08-30T15:48:13.311Z,4.97
2017-08-30T15:50:40.628Z,5.28
2017-08-30T15:53:07.949Z,5.15
2017-08-30T15:55:35.255Z,5.25
2017-08-30T15:58:02.579Z,5.40
2017-08-30T16:00:29.883Z,5.32
2017-08-30T16:02:57.216Z,4.67
2017-08-30T16:05:24.512Z,5.57
2017-08-30T16:07:51.837Z,5.10
2017-08-30T16:10:19.455Z,5.10
2017-08-30T16:12:46.791Z,5.20
2017-08-30T16:15:14.076Z,5.40
2017-08-30T16:17:41.407Z,5.80
2017-08-30T16:20:08.729Z,6.00
2017-08-30T16:22:36.021Z,5.67
2017-08-30T16:25:03.340Z,6.00
2017-08-30T16:27:30.698Z,5.57
2017-08-30T16:29:58.004Z,5.70
2017-08-30T16:32:25.337Z,6.07
2017-08-30T16:34:52.696Z,6.30
2017-08-30T16:37:20.039Z,6.17
2017-08-30T16:39:47.670Z,6.20
2017-08-30T16:42:15.004Z,6.40
2017-08-30T16:44:42.390Z,7.17
2017-08-30T16:47:09.692Z,6.90
2017-08-30T16:49:37.484Z,6.33
2017-08-30T16:52:04.791Z,6.97
2017-08-30T16:54:32.098Z,5.90
2017-08-30T16:56:59.389Z,5.90
2017-08-30T16:59:26.716Z,5.97
2017-08-30T17:01:54.056Z,6.53
2017-08-30T17:04:21.396Z,6.97
2017-08-30T17:06:48.751Z,6.90
2017-08-30T17:09:16.067Z,8.80
2017-08-30T17:11:43.394Z,8.70
2017-08-30T17:14:10.700Z,7.37
2017-08-30T17:16:37.993Z,6.93
2017-08-30T17:19:05.329Z,7.43
2017-08-30T17:21:32.658Z,7.27
2017-08-30T17:23:59.945Z,6.57
2017-08-30T17:26:27.261Z,6.80
2017-08-30T17:28:54.617Z,6.83
2017-08-30T17:31:21.952Z,7.97
2017-08-30T17:33:49.274Z,6.43
2017-08-30T17:36:16.606Z,7.47
2017-08-30T17:38:43.919Z,7.67
2017-08-30T17:41:11.414Z,6.27
2017-08-30T17:43:38.741Z,7.27
2017-08-30T17:46:06.058Z,6.60
2017-08-30T17:48:33.362Z,6.60
2017-08-30T17:51:00.673Z,6.47
2017-08-30T17:53:27.999Z,6.60
2017-08-30T17:55:55.361Z,7.20
2017-08-30T17:58:22.676Z,6.83
2017-08-30T18:00:50.139Z,6.60
2017-08-30T18:03:17.482Z,7.10
2017-08-30T18:05:44.822Z,7.63
2017-08-30T18:08:12.164Z,7.63
2017-08-30T18:10:39.489Z,7.20
2017-08-30T18:13:06.814Z,7.83
2017-08-30T18:15:34.277Z,7.50
2017-08-30T18:18:01.588Z,7.53
2017-08-30T18:20:28.893Z,7.90
2017-08-30T18:22:56.213Z,7.43
2017-08-30T18:25:23.527Z,7.90
2017-08-30T18:27:50.846Z,8.13
2017-08-30T18:30:18.145Z,7.50
2017-08-30T18:32:45.490Z,8.50
2017-08-30T18:35:12.821Z,8.83
2017-08-30T18:37:40.179Z,8.20
2017-08-30T18:40:07.490Z,8.90
2017-08-30T18:42:34.813Z,7.60
2017-08-30T18:45:02.110Z,7.40
2017-08-30T18:47:29.450Z,8.50
2017-08-30T18:49:56.739Z,7.40
2017-08-30T18:52:24.038Z,7.10
2017-08-30T18:54:51.362Z,7.20
2017-08-30T18:57:18.658Z,7.70
2017-08-30T18:59:45.985Z,7.80
2017-08-30T19:02:13.282Z,8.93
2017-08-30T19:04:40.611Z,8.00
2017-08-30T19:07:07.933Z,8.00
2017-08-30T19:09:35.250Z,7.17
2017-08-30T19:12:02.559Z,7.90
2017-08-30T19:14:29.887Z,7.87
2017-08-30T19:16:57.187Z,7.30
2017-08-30T19:19:24.505Z,7.40
2017-08-30T19:21:51.827Z,8.00
2017-08-30T19:24:19.454Z,7.53
2017-08-30T19:26:47.072Z,7.63
2017-08-30T19:29:14.386Z,7.80
2017-08-30T19:31:41.672Z,8.27
2017-08-30T19:34:08.996Z,8.27
2017-08-30T19:36:36.324Z,7.43
2017-08-30T19:39:03.646Z,6.90
2017-08-30T19:41:31.115Z,7.30
2017-08-30T19:43:58.424Z,7.73
2017-08-30T19:46:25.734Z,7.63
2017-08-30T19:48:53.043Z,7.40
2017-08-30T19:51:20.371Z,7.83
2017-08-30T19:53:47.669Z,7.50
2017-08-30T19:56:14.989Z,6.90
2017-08-30T19:58:42.320Z,7.40
2017-08-30T20:01:09.997Z,7.90
2017-08-30T20:03:37.599Z,6.43
2017-08-30T20:06:04.927Z,7.20
2017-08-30T20:08:32.231Z,7.57
2017-08-30T20:10:59.553Z,7.30
2017-08-30T20:13:26.865Z,6.57
2017-08-30T20:15:55.024Z,7.20
2017-08-30T20:18:22.321Z,8.47
2017-08-30T20:20:49.626Z,7.20
2017-08-30T20:23:16.950Z,6.90
2017-08-30T20:25:44.354Z,8.07
2017-08-30T20:28:12.033Z,6.53
2017-08-30T20:30:39.340Z,7.10
2017-08-30T20:33:06.646Z,7.10
2017-08-30T20:35:34.294Z,7.10
2017-08-30T20:38:01.621Z,7.03
2017-08-30T20:40:28.955Z,6.60
2017-08-30T20:42:56.290Z,6.97
2017-08-30T20:45:23.601Z,6.53
2017-08-30T20:47:50.923Z,7.13
2017-08-30T20:50:18.232Z,6.57
2017-08-30T20:52:45.571Z,6.77
2017-08-30T20:55:12.911Z,6.97
2017-08-30T20:57:40.253Z,9.50
2017-08-30T21:00:07.796Z,7.37
2017-08-30T21:02:35.582Z,7.33
2017-08-30T21:05:02.882Z,6.67
2017-08-30T21:07:30.224Z,8.30
2017-08-30T21:09:57.557Z,8.50
2017-08-30T21:12:24.905Z,7.40
2017-08-30T21:14:52.245Z,7.30
2017-08-30T21:17:19.607Z,7.00
2017-08-30T21:19:47.212Z,7.73
2017-08-30T21:22:14.548Z,7.57
2017-08-30T21:24:42.398Z,7.27
2017-08-30T21:27:09.691Z,7.90
2017-08-30T21:29:37.539Z,7.27
2017-08-30T21:32:04.855Z,8.00
2017-08-30T21:34:32.166Z,7.50
2017-08-30T21:36:59.462Z,7.07
2017-08-30T21:39:26.806Z,7.67
2017-08-30T21:41:54.126Z,7.00
2017-08-30T21:44:21.485Z,9.40
2017-08-30T21:46:49.104Z,8.00
2017-08-30T21:49:16.423Z,8.07
2017-08-30T21:51:43.721Z,8.67
2017-08-30T21:54:11.032Z,8.53
2017-08-30T21:56:38.387Z,8.30
2017-08-30T21:59:05.729Z,8.10
2017-08-30T22:01:33.056Z,7.83
2017-08-30T22:04:00.379Z,8.20
2017-08-30T22:06:27.820Z,8.23
2017-08-30T22:08:55.141Z,7.40
2017-08-30T22:11:22.445Z,7.90
2017-08-30T22:13:49.787Z,8.30
2017-08-30T22:16:17.113Z,8.10
2017-08-30T22:18:44.462Z,7.87
2017-08-30T22:21:11.819Z,8.07
2017-08-30T22:23:39.111Z,7.63
2017-08-30T22:26:06.442Z,8.60
2017-08-30T22:28:33.758Z,8.83
2017-08-30T22:31:01.081Z,8.20
2017-08-30T22:33:28.383Z,8.93
2017-08-30T22:35:55.698Z,8.40
2017-08-30T22:38:23.013Z,10.10
2017-08-30T22:40:50.338Z,8.60
2017-08-30T22:43:17.654Z,8.00
2017-08-30T22:45:44.999Z,8.10
2017-08-30T22:48:12.541Z,9.03
2017-08-30T22:50:39.875Z,9.00
2017-08-30T22:53:07.187Z,9.00
2017-08-30T22:55:34.509Z,8.57
2017-08-30T22:58:01.812Z,8.60
2017-08-30T23:00:29.163Z,9.10
2017-08-30T23:02:56.492Z,9.37
2017-08-30T23:05:23.823Z,8.37
2017-08-30T23:07:51.135Z,9.40
2017-08-30T23:10:18.454Z,8.60
2017-08-30T23:12:45.761Z,9.10
2017-08-30T23:15:13.093Z,9.00
2017-08-30T23:17:40.412Z,8.57
2017-08-30T23:20:07.980Z,9.20
2017-08-30T23:22:35.327Z,9.17
2017-08-30T23:25:02.680Z,8.63
2017-08-30T23:27:29.991Z,9.50
2017-08-30T23:29:57.323Z,10.60
2017-08-30T23:32:24.616Z,11.00
2017-08-30T23:34:51.926Z,12.07
2017-08-30T23:37:19.271Z,9.10
2017-08-30T23:39:46.597Z,9.27
2017-08-30T23:42:13.954Z,9.20
2017-08-30T23:44:41.278Z,9.40
2017-08-30T23:47:08.598Z,9.40
2017-08-30T23:49:35.897Z,9.17
2017-08-30T23:52:03.218Z,9.47
2017-08-30T23:54:31.036Z,8.87
2017-08-30T23:56:58.356Z,9.30
2017-08-30T23:59:25.665Z,9.10
